Tiempo atmosférico en la estación meteorológica de Esterri d?Àneu, Lleida (940 m.)



Fecha
DESCASC
Temp. máxima en grados centígrados (hora)
DESCASC
Temp. mínima en grados centígrados (hora)
DESCASC
Temp. media en grados centígrados
DESCASC
Racha de viento máxima en m/sg (hora)
DESCASC
Velocidad máxima media en intervalos de 10 minutos(hora)
DESCASC
Precipitaciones diarias en mm
DESCASC
Precipitaciones de 00:00 a 06:00 en mm
DESCASC
Precipitaciones de 06:00 a 12:00 en mm
DESCASC
Precipitaciones de 12:00 a 18:00 en mm
DESCASC
Precipitaciones de 18:00 a 24:00 en mm
DESCASC

Gráficas

Temp. máximas Temp. mínimas Temp. medias Precipitaciones Rachas de viento máximas Velocidades máximas media en intervalos de 10 minutos

Datos horarios

Fecha y hora oficial Temperatura (ºC) Velocidad del viento (km/h) Dirección del viento Racha (km/h) Dirección de racha Precipitación (mm) Presión (hPa) Tendencia (hPa) Humedad (%)
2019-12-10 23:00:00 -- -- -- -- -- -- -- -- --
2019-12-10 22:00:00 -- -- -- -- -- -- -- -- --
2019-12-10 21:00:00 1.6 0 Calma 3 Norte 0 -- -- 67
2019-12-10 20:00:00 2.1 0 Calma 3 Sur 0 -- -- 60
2019-12-10 19:00:00 4.3 0 Calma 4 Sudeste 0 -- -- 52
2019-12-10 18:00:00 9.1 2 Norte 23 Norte 0 -- -- 35
2019-12-10 17:00:00 10.8 13 Nordeste 24 Norte 0 -- -- 29
2019-12-10 16:00:00 12 4 Norte 22 Noroeste 0 -- -- 26
2019-12-10 15:00:00 14.2 6 Norte 26 Norte 0 -- -- 20
2019-12-10 14:00:00 14.7 10 Norte 30 Noroeste 0 -- -- 21
2019-12-10 13:00:00 13.4 11 Noroeste 28 Noroeste 0 -- -- 21
2019-12-10 12:00:00 12.1 7 Norte 24 Noroeste 0 -- -- 21
2019-12-10 11:00:00 9.4 10 Nordeste 27 Nordeste 0 -- -- 25
2019-12-10 10:00:00 7.2 13 Nordeste 24 Norte 0 -- -- 27
2019-12-10 09:00:00 5.8 2 Este 20 Norte 0 -- -- 34
2019-12-10 08:00:00 5.7 7 Nordeste 22 Norte 0 -- -- 34
2019-12-10 07:00:00 6.1 8 Norte 32 Norte 0 -- -- 41
2019-12-10 06:00:00 6.1 12 Norte 32 Norte 0 -- -- 47
2019-12-10 05:00:00 5.8 11 Norte 35 Norte 0 -- -- 54
2019-12-10 04:00:00 5.8 13 Norte 28 Norte 0 -- -- 57
2019-12-10 03:00:00 5.7 7 Norte 19 Norte 0 -- -- 60
2019-12-10 02:00:00 5.4 4 Norte 20 Noroeste 0 -- -- 62
2019-12-10 01:00:00 5.5 12 Norte 28 Norte 0 -- -- 65
2019-12-10 00:00:00 5 4 Noroeste 13 Norte 0 -- -- 64
2019-12-09 23:00:00 5 4 Noroeste 14 Noroeste 0 -- -- 63
2019-12-09 22:00:00 4.6 5 Sudeste 23 Noroeste 0 -- -- 72
2019-12-09 21:00:00 5.3 10 Norte 36 Norte 0 -- -- 63
2019-12-09 20:00:00 4.5 2 Sudeste 23 Noroeste 0 -- -- 71
2019-12-09 19:00:00 5.5 8 Noroeste 21 Noroeste 0 -- -- 71
2019-12-09 18:00:00 5.4 5 Norte 17 Norte 0 -- -- 74
2019-12-09 17:00:00 5.5 2 Oeste 21 Noroeste 0 -- -- 75
2019-12-09 16:00:00 5.3 3 Nordeste 8 Nordeste 0 -- -- 78
2019-12-09 15:00:00 5 3 Noroeste 17 Norte 0.4 -- -- 80
2019-12-09 14:00:00 7.5 10 Noroeste 24 Nordeste 0 -- -- 56
2019-12-09 13:00:00 6.1 6 Sudeste 14 Sur 0.2 -- -- 80
2019-12-09 12:00:00 6 5 Sur 12 Noroeste 0.2 -- -- 78
2019-12-09 11:00:00 6.5 2 Noroeste 13 Nordeste 0.2 -- -- 72
2019-12-09 10:00:00 6.8 4 Norte 27 Noroeste 0 -- -- 69
2019-12-09 09:00:00 6.9 0 Calma 17 Noroeste 0 -- -- 58
2019-12-09 08:00:00 7.4 7 Noroeste 20 Norte 0 -- -- 54
2019-12-09 07:00:00 2.5 0 Calma 11 Este 0 -- -- 66
2019-12-09 06:00:00 -1 3 Sudoeste 9 Sudeste 0 -- -- 71
2019-12-09 05:00:00 -0.3 3 Noroeste 10 Sudeste 0 -- -- 70
2019-12-09 04:00:00 0.3 2 Sudeste 5 Sudeste 0 -- -- 71
2019-12-09 03:00:00 2 0 Calma 6 Sudoeste 0 -- -- 64
2019-12-09 02:00:00 4.3 3 Norte 10 Norte 0 -- -- 47
2019-12-09 01:00:00 7.1 9 Norte 19 Nordeste 0 -- -- 41
2019-12-09 00:00:00 8.8 4 Nordeste 16 Norte 0 -- -- 43
2019-12-08 23:00:00 10.8 6 Norte 24 Noroeste 0 -- -- 40
2019-12-08 22:00:00 9.4 6 Norte 18 Norte 0 -- -- 62
2019-12-08 21:00:00 6.8 0 Calma 14 Nordeste 0 -- -- 83
2019-12-08 20:00:00 8.9 8 Este 16 Este 0 -- -- 81
2019-12-08 19:00:00 8.7 9 Nordeste 16 Nordeste 0 -- -- 72
2019-12-08 18:00:00 6.4 0 Calma 7 Sudeste 0 -- -- 69
2019-12-08 17:00:00 7.1 2 Sur 5 Este 0 -- -- 64
2019-12-08 16:00:00 10 0 Calma 7 Sur 0 -- -- 51
2019-12-08 15:00:00 11.7 2 Sur 7 Sudoeste 0 -- -- 41
2019-12-08 14:00:00 10.1 2 Sudoeste 6 Sudoeste 0 -- -- 47
2019-12-08 13:00:00 6.5 3 Sur 6 Sur 0 -- -- 61
2019-12-08 12:00:00 3.2 2 Sur 5 Sudoeste 0 -- -- 80
2019-12-08 11:00:00 0 0 Calma 4 Sur 0 -- -- 98
2019-12-08 10:00:00 -3.6 0 Calma 4 Sur 0 -- -- 97
2019-12-08 09:00:00 -4.1 0 Calma 2 Sur 0 -- -- 95
2019-12-08 08:00:00 -3.9 0 Calma 2 Sur 0 -- -- 95
2019-12-08 07:00:00 -3.7 0 Calma 3 Sur 0 -- -- 95
2019-12-08 06:00:00 -3.6 0 Calma 2 Sur 0 -- -- 95
2019-12-08 05:00:00 -3.2 0 Calma 2 Sur 0 -- -- 95
2019-12-08 04:00:00 -2.9 0 Calma 3 Sur 0 -- -- 95
2019-12-08 03:00:00 -2.6 0 Calma 3 Sur 0 -- -- 95
2019-12-08 02:00:00 -2.3 0 Calma 3 Sur 0 -- -- 95
2019-12-08 01:00:00 -1.9 0 Calma 2 Sur 0 -- -- 95
2019-12-08 00:00:00 -1.3 0 Calma 3 Sur 0 -- -- 95
2019-12-07 23:00:00 -1 0 Calma 5 Sur 0 -- -- 93
2019-12-07 22:00:00 -0.2 0 Calma 3 Sudeste 0 -- -- 93
2019-12-07 21:00:00 0.3 0 Calma 2 Este 0 -- -- 91
2019-12-07 20:00:00 1.3 0 Calma 2 Sur 0 -- -- 88
2019-12-07 19:00:00 2.3 0 Calma 2 Sur 0 -- -- 84
2019-12-07 18:00:00 4.1 0 Calma 3 Sur 0 -- -- 77
2019-12-07 17:00:00 6.6 0 Calma 4 Sur 0 -- -- 68
2019-12-07 16:00:00 10.4 0 Calma 6 Sudoeste 0 -- -- 54
2019-12-07 15:00:00 11.3 3 Sur 21 Sudeste 0 -- -- 50
2019-12-07 14:00:00 10.3 3 Sur 7 Sur 0 -- -- 55
2019-12-07 13:00:00 6.5 0 Calma 6 Sudoeste 0 -- -- 70
2019-12-07 12:00:00 3.2 2 Sur 4 Sudoeste 0 -- -- 84
2019-12-07 11:00:00 0.1 0 Calma 4 Sudeste 0 -- -- 99
2019-12-07 10:00:00 -3 0 Calma 2 Sur 0 -- -- 97
2019-12-07 09:00:00 -3.6 0 Calma 2 Norte 0 -- -- 96
2019-12-07 08:00:00 -3.6 0 Calma 2 Sur 0 -- -- 96
2019-12-07 07:00:00 -3.4 0 Calma 2 Sudeste 0 -- -- 95
2019-12-07 06:00:00 -3.3 0 Calma 3 Sur 0 -- -- 95
2019-12-07 05:00:00 -3.1 0 Calma 3 Sur 0 -- -- 95
2019-12-07 04:00:00 -2.9 0 Calma 3 Norte 0 -- -- 95
2019-12-07 03:00:00 -2.5 0 Calma 4 Sudoeste 0 -- -- 95
2019-12-07 02:00:00 -2 0 Calma 2 Sudeste 0 -- -- 95
2019-12-07 01:00:00 -1.8 0 Calma 3 Oeste 0 -- -- 95
2019-12-07 00:00:00 -1.3 0 Calma 3 Sur 0 -- -- 95
2019-12-06 23:00:00 -0.8 0 Calma 4 Sur 0 -- -- 94
2019-12-06 22:00:00 -0.2 0 Calma 3 Sur 0 -- -- 93
2019-12-06 21:00:00 0.7 0 Calma 3 Sur 0 -- -- 91
2019-12-06 20:00:00 1.6 0 Calma 5 Noroeste 0 -- -- 89
2019-12-06 19:00:00 2.4 0 Calma 5 Noroeste 0 -- -- 87
2019-12-06 18:00:00 4.2 0 Calma 6 Nordeste 0 -- -- 80
2019-12-06 17:00:00 6.7 0 Calma 3 Sur 0 -- -- 72
2019-12-06 16:00:00 10 2 Norte 7 Sur 0 -- -- 60
2019-12-06 15:00:00 10.5 5 Sur 9 Sudeste 0 -- -- 56
2019-12-06 14:00:00 9.6 4 Sur 7 Sur 0 -- -- 58
2019-12-06 13:00:00 6.8 3 Sur 6 Sudoeste 0 -- -- 71
2019-12-06 12:00:00 3.7 2 Sur 4 Sur 0 -- -- 82
2019-12-06 11:00:00 0.8 2 Sur 4 Sudeste 0 -- -- 98
2019-12-06 10:00:00 -2.3 0 Calma 2 Sur 0 -- -- 97
2019-12-06 09:00:00 -2.7 0 Calma 2 Sur 0 -- -- 96
2019-12-06 08:00:00 -2.9 0 Calma 3 Sur 0 -- -- 96
2019-12-06 07:00:00 -2.4 0 Calma 3 Noroeste 0 -- -- 96
2019-12-06 06:00:00 -2.4 0 Calma 3 Sur 0 -- -- 95
2019-12-06 05:00:00 -2.1 0 Calma 2 Sur 0 -- -- 95
2019-12-06 04:00:00 -1.5 0 Calma 5 Sur 0 -- -- 95
2019-12-06 03:00:00 -1.1 0 Calma 2 Sur 0 -- -- 94
2019-12-06 02:00:00 -0.9 0 Calma 4 Sur 0 -- -- 93
2019-12-06 01:00:00 -0.3 0 Calma 4 Norte 0 -- -- 92
2019-12-06 00:00:00 0.4 0 Calma 3 Sudoeste 0 -- -- 88
2019-12-05 23:00:00 1.3 2 Sudoeste 5 Oeste 0 -- -- 85
2019-12-05 22:00:00 2.5 0 Calma 2 Sur 0 -- -- 84
2019-12-05 21:00:00 4 0 Calma 4 Norte 0 -- -- 79
2019-12-05 20:00:00 6.2 0 Calma 5 Sur 0 -- -- 68
2019-12-05 19:00:00 9.2 3 Nordeste 15 Nordeste 0 -- -- 58
2019-12-05 18:00:00 9.6 5 Nordeste 16 Nordeste 0 -- -- 55
2019-12-05 17:00:00 10.5 5 Norte 26 Norte 0 -- -- 52
2019-12-05 16:00:00 10.9 10 Norte 27 Norte 0 -- -- 49
2019-12-05 15:00:00 11.2 10 Norte 29 Noroeste 0 -- -- 46
2019-12-05 14:00:00 11.5 11 Norte 26 Norte 0 -- -- 49
2019-12-05 13:00:00 12 9 Norte 22 Norte 0 -- -- 51
2019-12-05 12:00:00 11.4 4 Norte 14 Nordeste 0 -- -- 56
2019-12-05 11:00:00 10.5 4 Norte 17 Noroeste 0 -- -- 61
2019-12-05 10:00:00 9.6 3 Nordeste 15 Nordeste 0 -- -- 66
2019-12-05 09:00:00 8.9 2 Este 19 Noroeste 0 -- -- 69
2019-12-05 08:00:00 4.5 0 Calma 4 Nordeste 0 -- -- 85
2019-12-05 07:00:00 4.6 0 Calma 5 Oeste 0 -- -- 83
2019-12-05 06:00:00 4.7 2 Sudeste 8 Noroeste 0 -- -- 82
2019-12-05 05:00:00 4.8 0 Calma 8 Sudeste 0 -- -- 80
2019-12-05 04:00:00 4.8 0 Calma 7 Noroeste 0 -- -- 78
2019-12-05 03:00:00 4.7 0 Calma 5 Este 0 -- -- 79
2019-12-05 02:00:00 5.2 2 Sudoeste 5 Sudoeste 0 -- -- 75
2019-12-05 01:00:00 6 0 Calma 4 Este 0 -- -- 70
2019-12-05 00:00:00 6.9 0 Calma 10 Sudeste 0 -- -- 64
2019-12-04 23:00:00 7.2 2 Este 12 Este 0 -- -- 60
2019-12-04 22:00:00 8.4 5 Nordeste 20 Nordeste 0 -- -- 50
2019-12-04 21:00:00 8.6 7 Nordeste 18 Nordeste 0 -- -- 50
2019-12-04 20:00:00 9 5 Norte 15 Norte 0 -- -- 54
2019-12-04 19:00:00 9.1 4 Norte 15 Norte 0 -- -- 52
2019-12-04 18:00:00 9.9 6 Nordeste 18 Norte 0 -- -- 49
2019-12-04 17:00:00 9.1 3 Norte 13 Nordeste 0 -- -- 55
2019-12-04 16:00:00 8.3 5 Norte 15 Noroeste 0 -- -- 58
2019-12-04 15:00:00 4.6 2 Sur 6 Sudeste 0 -- -- 78
2019-12-04 14:00:00 3.2 0 Calma 4 Norte 0 -- -- 82
2019-12-04 13:00:00 2.5 3 Sudeste 9 Sur 0 -- -- 83
2019-12-04 12:00:00 1.6 0 Calma 10 Sudeste 0 -- -- 86
2019-12-04 11:00:00 0.4 0 Calma 6 Sudeste 0 -- -- 90
2019-12-04 10:00:00 -1 0 Calma 4 Sur 0 -- -- 94
2019-12-04 09:00:00 -2.1 0 Calma 4 Sur 0 -- -- 95
2019-12-04 08:00:00 -2.8 2 Norte 5 Sur 0 -- -- 95
2019-12-04 07:00:00 -3.2 0 Calma 3 Oeste 0 -- -- 94
2019-12-04 06:00:00 -3.3 0 Calma 4 Sudeste 0 -- -- 93
2019-12-04 05:00:00 -3.1 0 Calma 2 Sur 0 -- -- 93
2019-12-04 04:00:00 -2.6 0 Calma 2 Sur 0 -- -- 92
2019-12-04 03:00:00 -2.4 0 Calma 2 Sur 0 -- -- 91
2019-12-04 02:00:00 -2.4 0 Calma 3 Oeste 0 -- -- 91
2019-12-04 01:00:00 -2.6 2 Sur 4 Sudoeste 0 -- -- 90
2019-12-04 00:00:00 -2.4 0 Calma 3 Sur 0 -- -- 91
2019-12-03 23:00:00 -2.2 0 Calma 3 Sur 0 -- -- 89
2019-12-03 22:00:00 -1.4 0 Calma 4 Sur 0 -- -- 88
2019-12-03 21:00:00 -1.1 0 Calma 4 Sur 0 -- -- 85
2019-12-03 20:00:00 -0.3 0 Calma 3 Noroeste 0 -- -- 82
2019-12-03 19:00:00 0.7 0 Calma 3 Sur 0 -- -- 78
2019-12-03 18:00:00 2.4 0 Calma 3 Sur 0 -- -- 71
2019-12-03 17:00:00 4.6 0 Calma 4 Sur 0 -- -- 60
2019-12-03 16:00:00 7.8 2 Norte 6 Sur 0 -- -- 47
2019-12-03 15:00:00 9.9 3 Sur 8 Sur 0 -- -- 36
2019-12-03 14:00:00 8.5 2 Sudoeste 6 Sur 0 -- -- 41
2019-12-03 13:00:00 5.3 3 Sudeste 8 Sur 0 -- -- 53
2019-12-03 12:00:00 1.9 0 Calma 6 Sur 0 -- -- 70
2019-12-03 11:00:00 -0.8 2 Sur 4 Sur 0 -- -- 91
2019-12-03 10:00:00 -3.8 0 Calma 2 Sur 0 -- -- 96
2019-12-03 09:00:00 -4.5 0 Calma 2 Sur 0 -- -- 95
2019-12-03 08:00:00 -4.5 0 Calma 3 Sur 0 -- -- 95
2019-12-03 07:00:00 -4.1 0 Calma 2 Norte 0 -- -- 94
2019-12-03 06:00:00 -3.7 0 Calma 3 Sur 0 -- -- 93
2019-12-03 05:00:00 -3.3 0 Calma 4 Oeste 0 -- -- 92
2019-12-03 04:00:00 -2.8 0 Calma 3 Sudeste 0 -- -- 92
2019-12-03 03:00:00 -2.3 0 Calma 4 Oeste 0 -- -- 89
2019-12-03 02:00:00 -1.9 0 Calma 4 Sur 0 -- -- 88
2019-12-03 01:00:00 -0.9 0 Calma 2 Este 0 -- -- 85
2019-12-03 00:00:00 0.5 0 Calma 2 Sur 0 -- -- 81
2019-12-02 23:00:00 1.7 0 Calma 5 Norte 0 -- -- 74
2019-12-02 22:00:00 2.9 0 Calma 5 Sudeste 0 -- -- 73
2019-12-02 21:00:00 3.1 4 Sur 11 Sudeste 0 -- -- 69
2019-12-02 20:00:00 4.5 3 Sur 12 Oeste 0 -- -- 63
2019-12-02 19:00:00 5.7 0 Calma 15 Noroeste 0 -- -- 59
2019-12-02 18:00:00 6.6 6 Norte 21 Norte 0 -- -- 56
2019-12-02 17:00:00 7.5 8 Noroeste 27 Norte 0 -- -- 51
2019-12-02 16:00:00 8.5 12 Noroeste 27 Noroeste 0 -- -- 48
2019-12-02 15:00:00 9.9 11 Noroeste 22 Oeste 0 -- -- 45
2019-12-02 14:00:00 9.9 10 Noroeste 23 Noroeste 0 -- -- 45
2019-12-02 13:00:00 9.2 13 Noroeste 28 Norte 0 -- -- 47
2019-12-02 12:00:00 8 12 Noroeste 26 Noroeste 0 -- -- 52
2019-12-02 11:00:00 5.8 4 Sudoeste 13 Sudeste 0 -- -- 63
2019-12-02 10:00:00 1.5 2 Sudeste 4 Sudeste 0 -- -- 87
2019-12-02 09:00:00 0.8 0 Calma 5 Sur 0 -- -- 87
2019-12-02 08:00:00 0.6 3 Sur 9 Este 0 -- -- 88
2019-12-02 07:00:00 -1.2 0 Calma 5 Sudeste 0 -- -- 95
2019-12-02 06:00:00 -2.1 0 Calma 5 Este 0 -- -- 95
2019-12-02 05:00:00 -1.7 0 Calma 4 Este 0 -- -- 95
2019-12-02 04:00:00 -1.4 0 Calma 4 Oeste 0 -- -- 95
2019-12-02 03:00:00 -1.1 0 Calma 3 Noroeste 0 -- -- 95
2019-12-02 02:00:00 -1.1 0 Calma 4 Oeste 0 -- -- 94
2019-12-02 01:00:00 -0.4 0 Calma 3 Sur 0 -- -- 95
2019-12-02 00:00:00 -0.2 0 Calma 3 Sudoeste 0 -- -- 93
2019-12-01 23:00:00 0.9 0 Calma 3 Oeste 0 -- -- 91
2019-12-01 22:00:00 1.6 0 Calma 3 Sudeste 0 -- -- 89
2019-12-01 21:00:00 2.6 0 Calma 6 Oeste 0 -- -- 86
2019-12-01 20:00:00 3.4 0 Calma 4 Sur 0 -- -- 82
2019-12-01 19:00:00 4.7 0 Calma 8 Nordeste 0 -- -- 75
2019-12-01 18:00:00 6.9 3 Nordeste 12 Nordeste 0 -- -- 63
2019-12-01 17:00:00 7.9 0 Calma 13 Noroeste 0 -- -- 61
2019-12-01 16:00:00 9 6 Norte 15 Norte 0 -- -- 56
2019-12-01 15:00:00 9.1 5 Nordeste 9 Nordeste 0 -- -- 62
2019-12-01 14:00:00 11.3 4 Sudoeste 9 Sur 0 -- -- 64
2019-12-01 13:00:00 8.9 4 Sudeste 9 Sur 0 -- -- 70
2019-12-01 12:00:00 7.5 2 Sudoeste 9 Sur 0 -- -- 82
2019-12-01 11:00:00 6.7 5 Sur 9 Sur 0 -- -- 87
2019-12-01 10:00:00 5.2 2 Sur 5 Sur 0 -- -- 97
2019-12-01 09:00:00 4.5 0 Calma 9 Sudeste 0 -- -- 97
2019-12-01 08:00:00 4.7 4 Sur 8 Sudeste 0 -- -- 97
2019-12-01 07:00:00 5.2 2 Sur 5 Sur 0 -- -- 98
2019-12-01 06:00:00 5.6 0 Calma 4 Nordeste 0 -- -- 97
2019-12-01 05:00:00 5.8 0 Calma 8 Sur 0 -- -- 97
2019-12-01 04:00:00 6.1 0 Calma 7 Sudeste 0.4 -- -- 97
2019-12-01 03:00:00 6.4 3 Norte 8 Oeste 0.2 -- -- 96
2019-12-01 02:00:00 6.5 2 Norte 5 Norte 0.8 -- -- 95
2019-12-01 01:00:00 6.5 0 Calma 14 Norte 0 -- -- 93
2019-12-01 00:00:00 6.6 6 Norte 18 Norte 0.6 -- -- 90
2019-11-30 23:00:00 6.9 8 Nordeste 18 Nordeste 1 -- -- 90
2019-11-30 22:00:00 7.7 0 Calma 14 Nordeste 1.4 -- -- 94
2019-11-30 21:00:00 7.6 3 Sur 10 Nordeste 0.4 -- -- 89
2019-11-30 20:00:00 7.7 3 Sudoeste 7 Nordeste 0 -- -- 81
2019-11-30 19:00:00 8 3 Norte 8 Sur 0 -- -- 77
2019-11-30 18:00:00 8.6 3 Noroeste 7 Noroeste 0 -- -- 70
2019-11-30 17:00:00 9.8 0 Calma 8 Norte 0 -- -- 58
2019-11-30 16:00:00 10.4 2 Sur 4 Sur 0 -- -- 51
2019-11-30 15:00:00 11.1 0 Calma 8 Sudoeste 0 -- -- 47
2019-11-30 14:00:00 9.8 0 Calma 6 Sur 0 -- -- 48
2019-11-30 13:00:00 6.7 2 Sudoeste 7 Sur 0 -- -- 57
2019-11-30 12:00:00 3.9 0 Calma 6 Sur 0 -- -- 67
2019-11-30 11:00:00 1.4 0 Calma 4 Sur 0 -- -- 85
2019-11-30 10:00:00 -1.3 0 Calma 4 Sur 0 -- -- 95
2019-11-30 09:00:00 -2.1 0 Calma 3 Sur 0 -- -- 94
2019-11-30 08:00:00 -2.4 0 Calma 5 Noroeste 0 -- -- 94
2019-11-30 07:00:00 -2.7 0 Calma 3 Sur 0 -- -- 94
2019-11-30 06:00:00 -2.6 0 Calma 3 Sudoeste 0 -- -- 93
2019-11-30 05:00:00 -2.7 3 Sur 5 Sudeste 0 -- -- 94
2019-11-30 04:00:00 -2 0 Calma 2 Sur 0 -- -- 93
2019-11-30 03:00:00 -1.7 0 Calma 2 Sudeste 0 -- -- 93
2019-11-30 02:00:00 -1.3 0 Calma 2 Sur 0 -- -- 92
2019-11-30 01:00:00 -0.8 0 Calma 2 Sur 0 -- -- 91
2019-11-30 00:00:00 -0.4 0 Calma 4 Sur 0 -- -- 89
2019-11-29 23:00:00 0.1 0 Calma 3 Sur 0 -- -- 88
2019-11-29 22:00:00 1.1 0 Calma 4 Sudeste 0 -- -- 84
2019-11-29 21:00:00 2.1 0 Calma 4 Noroeste 0 -- -- 79
2019-11-29 20:00:00 3.5 0 Calma 4 Sur 0 -- -- 74
2019-11-29 19:00:00 5.1 2 Sur 10 Nordeste 0 -- -- 64
2019-11-29 18:00:00 7.9 2 Norte 9 Norte 0 -- -- 59
2019-11-29 17:00:00 10.4 7 Norte 16 Nordeste 0 -- -- 43
2019-11-29 16:00:00 12.9 5 Norte 13 Nordeste 0 -- -- 35
2019-11-29 15:00:00 14.9 9 Noroeste 18 Nordeste 0 -- -- 27
2019-11-29 14:00:00 14.9 8 Noroeste 30 Nordeste 0 -- -- 25
2019-11-29 13:00:00 13.6 9 Norte 23 Norte 0 -- -- 31
2019-11-29 12:00:00 10.3 4 Oeste 15 Noroeste 0 -- -- 58
2019-11-29 11:00:00 7.3 0 Calma 5 Sudeste 0 -- -- 86
2019-11-29 10:00:00 5.3 3 Sur 5 Sur 0 -- -- 97
2019-11-29 09:00:00 4.4 0 Calma 3 Sur 0 -- -- 98
2019-11-29 08:00:00 4.4 0 Calma 5 Sur 0 -- -- 97
2019-11-29 07:00:00 4.8 0 Calma 4 Nordeste 0 -- -- 96
2019-11-29 06:00:00 5.4 0 Calma 5 Sur 0 -- -- 97
2019-11-29 05:00:00 5.6 0 Calma 4 Sur 0 -- -- 97
2019-11-29 04:00:00 6 0 Calma 4 Sudoeste 0 -- -- 97
2019-11-29 03:00:00 6.1 0 Calma 4 Sur 0 -- -- 96
2019-11-29 02:00:00 6.4 0 Calma 3 Sur 0 -- -- 96
2019-11-29 01:00:00 6.8 0 Calma 4 Noroeste 0 -- -- 95
2019-11-29 00:00:00 6.7 0 Calma 3 Sur 0 -- -- 95
2019-11-28 23:00:00 6.9 0 Calma 4 Sudeste 0 -- -- 94
2019-11-28 22:00:00 6.9 0 Calma 4 Noroeste 0 -- -- 94
2019-11-28 21:00:00 7 0 Calma 4 Sur 0 -- -- 91
2019-11-28 20:00:00 7.3 0 Calma 3 Sudoeste 0 -- -- 87
2019-11-28 19:00:00 8.1 0 Calma 5 Nordeste 0 -- -- 80
2019-11-28 18:00:00 8.5 0 Calma 4 Nordeste 0 -- -- 77
2019-11-28 17:00:00 9.8 0 Calma 4 Nordeste 0 -- -- 69
2019-11-28 16:00:00 11.3 2 Sudoeste 11 Sur 0 -- -- 61
2019-11-28 15:00:00 11.4 8 Sur 13 Sur 0 -- -- 60
2019-11-28 14:00:00 11.6 2 Oeste 13 Sur 0 -- -- 61
2019-11-28 13:00:00 9.5 2 Sur 6 Sur 0 -- -- 69
2019-11-28 12:00:00 7.9 3 Sur 6 Sudeste 0 -- -- 78
2019-11-28 11:00:00 6.5 0 Calma 4 Sudeste 0 -- -- 90
2019-11-28 10:00:00 5 0 Calma 3 Oeste 0 -- -- 98
2019-11-28 09:00:00 3.5 0 Calma 3 Sur 0 -- -- 98
2019-11-28 08:00:00 3.8 0 Calma 3 Este 0 -- -- 98
2019-11-28 07:00:00 3.8 0 Calma 5 Sur 0 -- -- 98
2019-11-28 06:00:00 3.8 0 Calma 6 Sudoeste 0 -- -- 99
2019-11-28 05:00:00 3.4 0 Calma 4 Noroeste 0 -- -- 99
2019-11-28 04:00:00 3 0 Calma 4 Sudoeste 0 -- -- 98
2019-11-28 03:00:00 3.7 0 Calma 4 Noroeste 0 -- -- 96
2019-11-28 02:00:00 4.6 0 Calma 4 Sur 0 -- -- 96
2019-11-28 01:00:00 4.9 0 Calma 4 Este 0 -- -- 95
2019-11-28 00:00:00 5.4 0 Calma 5 Sur 0 -- -- 95
2019-11-27 23:00:00 5.7 0 Calma 3 Sur 0 -- -- 94
2019-11-27 22:00:00 6.2 0 Calma 3 Sudeste 0 -- -- 92
2019-11-27 21:00:00 7.4 0 Calma 4 Nordeste 0 -- -- 89
2019-11-27 20:00:00 8.2 0 Calma 6 Nordeste 0 -- -- 84
2019-11-27 19:00:00 8.6 0 Calma 8 Noroeste 0 -- -- 81
2019-11-27 18:00:00 9.2 0 Calma 6 Sudeste 0 -- -- 76
2019-11-27 17:00:00 10.3 4 Sudeste 13 Sur 0 -- -- 73
2019-11-27 16:00:00 11.3 5 Sudeste 10 Sudeste 0 -- -- 69
2019-11-27 15:00:00 11.4 2 Sudeste 12 Sudeste 0 -- -- 69
2019-11-27 14:00:00 11.4 6 Sur 10 Sur 0 -- -- 72
2019-11-27 06:00:00 -- -- -- -- -- -- -- -- --
2019-11-27 05:00:00 6.6 2 Norte 9 Este 0.2 -- -- 99
2019-11-27 04:00:00 6.5 3 Sur 10 Sur 1.8 -- -- 98
2019-11-27 03:00:00 6.4 0 Calma 7 Este 0.4 -- -- 98
2019-11-27 02:00:00 6.3 2 Noroeste 12 Noroeste 0.6 -- -- 97
2019-11-27 01:00:00 6.2 4 Este 12 Este 0 -- -- 97
2019-11-27 00:00:00 6.1 2 Sudoeste 8 Sur 0.2 -- -- 96
2019-11-26 23:00:00 6.2 2 Noroeste 8 Noroeste 0 -- -- 94
2019-11-26 22:00:00 5.9 3 Oeste 6 Este 0.2 -- -- 93
2019-11-26 21:00:00 5.9 2 Este 6 Este 0 -- -- 87
2019-11-26 20:00:00 5.9 2 Sudeste 7 Sur 0 -- -- 85
2019-11-26 19:00:00 6.3 3 Norte 8 Noroeste 0 -- -- 81
2019-11-26 18:00:00 7.6 2 Sudoeste 10 Norte 0 -- -- 77
2019-11-26 17:00:00 9.5 0 Calma 4 Sudeste 0 -- -- 71
2019-11-26 16:00:00 11.8 0 Calma 5 Sur 0 -- -- 58
2019-11-26 15:00:00 11.4 2 Sur 4 Sur 0 -- -- 61
2019-11-26 14:00:00 11.5 3 Sudoeste 8 Oeste 0 -- -- 60
2019-11-26 13:00:00 8.9 4 Sur 8 Sudeste 0 -- -- 65
2019-11-26 12:00:00 6 3 Sur 7 Sur 0 -- -- 81
2019-11-26 11:00:00 2.6 0 Calma 9 Sur 0 -- -- 98
2019-11-26 10:00:00 -0.2 0 Calma 5 Sudoeste 0 -- -- 98
2019-11-26 09:00:00 -1.1 0 Calma 4 Sur 0 -- -- 98
2019-11-26 08:00:00 -1.5 0 Calma 6 Sur 0 -- -- 97
2019-11-26 07:00:00 -1.5 0 Calma 2 Oeste 0 -- -- 96
2019-11-26 06:00:00 -1.3 2 Sur 3 Sur 0 -- -- 96
2019-11-26 05:00:00 -0.5 2 Noroeste 5 Norte 0 -- -- 96
2019-11-26 04:00:00 -0.5 0 Calma 4 Sur 0 -- -- 95
2019-11-26 03:00:00 -0.2 0 Calma 3 Sudoeste 0 -- -- 96
2019-11-26 02:00:00 0 0 Calma 2 Sur 0 -- -- 95
2019-11-26 01:00:00 0.7 0 Calma 2 Oeste 0 -- -- 96
2019-11-26 00:00:00 1.1 0 Calma 2 Noroeste 0 -- -- 94
2019-11-25 23:00:00 1.6 0 Calma 3 Sur 0 -- -- 92
2019-11-25 22:00:00 2.8 0 Calma 3 Sur 0 -- -- 91
2019-11-25 21:00:00 3.9 0 Calma 0 Calma 0 -- -- 86
2019-11-25 20:00:00 5.3 0 Calma 3 Oeste 0 -- -- 82
2019-11-25 19:00:00 7.4 0 Calma 6 Norte 0 -- -- 76
2019-11-25 18:00:00 10.1 0 Calma 10 Nordeste 0 -- -- 66
2019-11-25 17:00:00 11.9 2 Nordeste 20 Noroeste 0 -- -- 59
2019-11-25 16:00:00 13.1 8 Noroeste 22 Noroeste 0 -- -- 54
2019-11-25 15:00:00 14.6 10 Noroeste 22 Noroeste 0 -- -- 50
2019-11-25 14:00:00 14.3 10 Noroeste 24 Noroeste 0 -- -- 52
2019-11-25 13:00:00 10.2 0 Calma 6 Sur 0 -- -- 67
2019-11-25 12:00:00 7.8 2 Sur 8 Sur 0 -- -- 72
2019-11-25 11:00:00 5.7 0 Calma 5 Sudeste 0 -- -- 80
2019-11-25 10:00:00 1.7 0 Calma 5 Sur 0 -- -- 96
2019-11-25 09:00:00 0.1 0 Calma 3 Noroeste 0 -- -- 96
2019-11-25 08:00:00 -0.7 0 Calma 5 Sur 0 -- -- 95
2019-11-25 07:00:00 -1.2 0 Calma 4 Sur 0 -- -- 95
2019-11-25 06:00:00 -0.7 0 Calma 3 Noroeste 0 -- -- 92
2019-11-25 05:00:00 -0.2 0 Calma 8 Sur 0 -- -- 93
2019-11-25 04:00:00 0.2 2 Sur 6 Noroeste 0 -- -- 91
2019-11-25 03:00:00 0.6 0 Calma 3 Sur 0 -- -- 91
2019-11-25 02:00:00 0.7 0 Calma 4 Sur 0 -- -- 90
2019-11-25 01:00:00 0.6 0 Calma 4 Sur 0 -- -- 90
2019-11-25 00:00:00 0.7 0 Calma 4 Norte 0 -- -- 89
2019-11-24 23:00:00 0.8 0 Calma 3 Sur 0 -- -- 87
2019-11-24 22:00:00 2 0 Calma 3 Sur 0 -- -- 83
2019-11-24 21:00:00 3.5 0 Calma 6 Norte 0 -- -- 78
2019-11-24 20:00:00 4.4 0 Calma 4 Norte 0 -- -- 74
2019-11-24 19:00:00 5.1 0 Calma 8 Sur 0 -- -- 67
2019-11-24 18:00:00 7.2 2 Sudeste 14 Noroeste 0 -- -- 58
2019-11-24 17:00:00 8.7 6 Norte 23 Norte 0 -- -- 50
2019-11-24 16:00:00 9.7 7 Norte 31 Norte 0 -- -- 48
2019-11-24 15:00:00 11.1 10 Norte 26 Norte 0 -- -- 46
2019-11-24 14:00:00 11.4 9 Noroeste 28 Norte 0 -- -- 44
2019-11-24 13:00:00 10.6 9 Norte 23 Norte 0 -- -- 46
2019-11-24 12:00:00 9.6 6 Norte 21 Noroeste 0 -- -- 50
2019-11-24 11:00:00 8.8 10 Norte 24 Norte 0 -- -- 50
2019-11-24 10:00:00 8.1 8 Norte 20 Norte 0 -- -- 53
2019-11-24 09:00:00 6 3 Nordeste 11 Noroeste 0 -- -- 60
2019-11-24 08:00:00 5.6 4 Norte 23 Norte 0 -- -- 56
2019-11-24 07:00:00 5.8 5 Norte 22 Noroeste 0 -- -- 56
2019-11-24 06:00:00 5.9 7 Norte 22 Sudoeste 0 -- -- 58
2019-11-24 05:00:00 6.1 4 Norte 26 Norte 0 -- -- 59
2019-11-24 04:00:00 5.7 0 Calma 17 Oeste 0 -- -- 64
2019-11-24 03:00:00 6 3 Nordeste 15 Noroeste 0 -- -- 63
2019-11-24 02:00:00 5.9 5 Nordeste 21 Noroeste 0 -- -- 66
2019-11-24 01:00:00 6.1 7 Norte 24 Oeste 0 -- -- 61
2019-11-24 00:00:00 6.1 7 Norte 25 Norte 0 -- -- 58
2019-11-23 23:00:00 6.2 9 Norte 24 Noroeste 0 -- -- 53
2019-11-23 22:00:00 5.9 5 Norte 34 Norte 0 -- -- 59
2019-11-23 21:00:00 6.4 10 Noroeste 26 Noroeste 0.2 -- -- 61
2019-11-23 20:00:00 6.5 8 Norte 32 Nordeste 0 -- -- 58
2019-11-23 19:00:00 6.4 9 Norte 22 Norte 0 -- -- 64
2019-11-23 18:00:00 5 4 Norte 9 Nordeste 0 -- -- 82
2019-11-23 17:00:00 5.1 4 Este 9 Norte 0 -- -- 95
2019-11-23 16:00:00 5.1 0 Calma 4 Norte 0.6 -- -- 93
2019-11-23 15:00:00 5.1 4 Nordeste 9 Norte 1.6 -- -- 91
2019-11-23 14:00:00 5.8 3 Nordeste 9 Norte 2.4 -- -- 91
2019-11-23 13:00:00 6.7 0 Calma 2 Norte 0.6 -- -- 93
2019-11-23 12:00:00 6.3 0 Calma 3 Noroeste 0 -- -- 93
2019-11-23 11:00:00 5.7 0 Calma 4 Sur 0 -- -- 98
2019-11-23 10:00:00 4.2 0 Calma 3 Sudeste 0.2 -- -- 100
2019-11-23 09:00:00 3.2 0 Calma 4 Noroeste 0 -- -- 100
2019-11-23 08:00:00 3.1 0 Calma 3 Sudeste 0 -- -- 100
2019-11-23 07:00:00 3 0 Calma 4 Sur 0 -- -- 99
2019-11-23 06:00:00 3.3 2 Norte 6 Nordeste 0 -- -- 99
2019-11-23 05:00:00 3.4 0 Calma 5 Noroeste 0 -- -- 99
2019-11-23 04:00:00 3.8 0 Calma 6 Este 0 -- -- 98
2019-11-23 03:00:00 4.5 0 Calma 4 Norte 1.2 -- -- 98
2019-11-23 02:00:00 4.7 3 Sur 8 Sur 1.8 -- -- 98
2019-11-23 01:00:00 4.7 0 Calma 5 Sudeste 2 -- -- 98
2019-11-23 00:00:00 4.9 0 Calma 3 Noroeste 3 -- -- 96
2019-11-22 23:00:00 5.4 0 Calma 15 Sudeste 2.2 -- -- 94
2019-11-22 22:00:00 5.8 10 Sudeste 19 Este 0.6 -- -- 91
2019-11-22 21:00:00 6 3 Sur 12 Sudeste 4.2 -- -- 91
2019-11-22 20:00:00 6.9 3 Sur 24 Sudeste 3.4 -- -- 87
2019-11-22 19:00:00 8 14 Sur 44 Este 1.6 -- -- 80
2019-11-22 18:00:00 8.3 28 Sudeste 50 Sudeste 1.8 -- -- 75
2019-11-22 17:00:00 7.3 13 Sur 37 Sur 1.2 -- -- 79
2019-11-22 16:00:00 7.7 21 Sudeste 41 Sudeste 1 -- -- 76
2019-11-22 15:00:00 7.9 22 Sudeste 50 Sudeste 0.8 -- -- 74
2019-11-22 14:00:00 7.9 21 Sur 48 Sudeste 0.4 -- -- 74
2019-11-22 13:00:00 4.9 2 Noroeste 6 Noroeste 0 -- -- 88
2019-11-22 12:00:00 2.9 0 Calma 5 Oeste 0 -- -- 88
2019-11-22 11:00:00 1 0 Calma 3 Sudeste 0 -- -- 94
2019-11-22 10:00:00 -0.1 0 Calma 4 Oeste 0 -- -- 95
2019-11-22 09:00:00 -1.3 0 Calma 3 Sur 0 -- -- 96
2019-11-22 08:00:00 -1.7 0 Calma 4 Sudeste 0 -- -- 95
2019-11-22 07:00:00 -1.7 0 Calma 4 Norte 0 -- -- 95
2019-11-22 06:00:00 -1.7 2 Sudeste 4 Sudeste 0 -- -- 94
2019-11-22 05:00:00 -1.3 0 Calma 4 Sur 0 -- -- 95
2019-11-22 04:00:00 -1.4 0 Calma 3 Este 0 -- -- 94
2019-11-22 03:00:00 -1.6 0 Calma 6 Oeste 0 -- -- 93
2019-11-22 02:00:00 -1.2 0 Calma 5 Oeste 0 -- -- 93
2019-11-22 01:00:00 -0.9 0 Calma 6 Este 0 -- -- 91
2019-11-22 00:00:00 -0.7 0 Calma 5 Sudeste 0 -- -- 92
2019-11-21 23:00:00 -0.7 0 Calma 4 Nordeste 0 -- -- 90
2019-11-21 22:00:00 -0.7 0 Calma 5 Oeste 0 -- -- 87
2019-11-21 21:00:00 0.3 0 Calma 5 Sur 0 -- -- 86
2019-11-21 20:00:00 1.7 0 Calma 9 Norte 0 -- -- 80
2019-11-21 19:00:00 3.4 3 Noroeste 13 Nordeste 0 -- -- 73
2019-11-21 18:00:00 4.5 2 Este 9 Norte 0 -- -- 70
2019-11-21 17:00:00 6 0 Calma 8 Nordeste 0 -- -- 63
2019-11-21 16:00:00 7.2 2 Sur 6 Sur 0 -- -- 57
2019-11-21 15:00:00 8.9 2 Sur 9 Sudoeste 0 -- -- 47
2019-11-21 14:00:00 7 2 Norte 6 Sudoeste 0 -- -- 52
2019-11-21 13:00:00 4.5 2 Sudeste 6 Sur 0 -- -- 58
2019-11-21 12:00:00 2.8 3 Sur 6 Sur 0 -- -- 66
2019-11-21 11:00:00 -0.3 0 Calma 4 Sur 0 -- -- 80
2019-11-21 10:00:00 -3.4 2 Sur 4 Oeste 0 -- -- 96
2019-11-21 09:00:00 -4.6 0 Calma 3 Noroeste 0 -- -- 94
2019-11-21 08:00:00 -- -- -- -- -- -- -- -- --
2019-11-21 07:00:00 -- -- -- -- -- -- -- -- --
2019-11-21 06:00:00 -- -- -- -- -- -- -- -- --
2019-11-21 05:00:00 -- -- -- -- -- -- -- -- --
2019-11-21 04:00:00 -- -- -- -- -- -- -- -- --
2019-11-21 03:00:00 -- -- -- -- -- -- -- -- --
2019-11-21 02:00:00 -- -- -- -- -- -- -- -- --
2019-11-21 01:00:00 -- -- -- -- -- -- -- -- --
2019-11-21 00:00:00 -- -- -- -- -- -- -- -- --
2019-11-20 23:00:00 -- -- -- -- -- -- -- -- --
2019-11-20 22:00:00 -- -- -- -- -- -- -- -- --
2019-11-20 21:00:00 -- -- -- -- -- -- -- -- --
2019-11-20 20:00:00 -1 0 Calma 3 Nordeste 0 -- -- 82
2019-11-20 19:00:00 0.4 0 Calma 3 Nordeste 0 -- -- 76
2019-11-20 18:00:00 2.4 0 Calma 3 Norte 0 -- -- 67
2019-11-20 17:00:00 5.3 0 Calma 6 Nordeste 0 -- -- 56
2019-11-20 16:00:00 6.9 3 Noroeste 6 Noroeste 0 -- -- 45
2019-11-20 15:00:00 6.4 2 Sudeste 7 Sudeste 0 -- -- 46
2019-11-20 14:00:00 5 3 Sudeste 8 Sur 0 -- -- 47
2019-11-20 13:00:00 3.7 4 Sur 8 Sur 0 -- -- 53
2019-11-20 12:00:00 1.1 0 Calma 5 Sur 0 -- -- 65
2019-11-20 11:00:00 -1.6 0 Calma 3 Sur 0 -- -- 78
2019-11-20 10:00:00 -4.1 0 Calma 2 Sudeste 0 -- -- 94
2019-11-20 09:00:00 -6.2 0 Calma 2 Sur 0 -- -- 93
2019-11-20 08:00:00 -6.7 0 Calma 2 Sur 0 -- -- 93
2019-11-20 07:00:00 -6.5 0 Calma 0 Calma 0 -- -- 92
2019-11-20 06:00:00 -6 0 Calma -- -- 0 -- -- 92
2019-11-20 05:00:00 -5.8 0 Calma 0 Calma 0 -- -- 92
2019-11-20 04:00:00 -5.4 0 Calma 2 Sudoeste 0 -- -- 91
2019-11-20 03:00:00 -5.1 0 Calma 2 Sur 0 -- -- 91
2019-11-20 02:00:00 -4.7 0 Calma 0 Calma 0 -- -- 90
2019-11-20 01:00:00 -4.4 0 Calma 3 Sur 0 -- -- 88
2019-11-20 00:00:00 -3.6 0 Calma 3 Sur 0 -- -- 86
2019-11-19 23:00:00 -3 0 Calma 3 Sur 0 -- -- 85
2019-11-19 22:00:00 -2.7 0 Calma 3 Sur 0 -- -- 80
2019-11-19 21:00:00 -1.9 0 Calma 6 Noroeste 0 -- -- 77
2019-11-19 20:00:00 -0.5 0 Calma 3 Sur 0 -- -- 72
2019-11-19 19:00:00 1.2 0 Calma 4 Noroeste 0 -- -- 65
2019-11-19 18:00:00 4.4 0 Calma 16 Norte 0 -- -- 47
2019-11-19 17:00:00 6.9 5 Nordeste 14 Nordeste 0 -- -- 34
2019-11-19 16:00:00 9 5 Norte 18 Noroeste 0 -- -- 29
2019-11-19 15:00:00 10.5 8 Norte 18 Norte 0 -- -- 25
2019-11-19 14:00:00 10 3 Sudoeste 10 Noroeste 0 -- -- 32
2019-11-19 13:00:00 6 4 Sur 10 Sudoeste 0 -- -- 42
2019-11-19 12:00:00 2.2 0 Calma 5 Sur 0 -- -- 52
2019-11-19 11:00:00 -1.1 0 Calma 5 Este 0 -- -- 68
2019-11-19 10:00:00 -4.2 2 Sudeste 4 Sudeste 0 -- -- 91
2019-11-19 09:00:00 -5.6 0 Calma 4 Sudeste 0 -- -- 90
2019-11-19 08:00:00 -5.8 0 Calma 3 Sudeste 0 -- -- 90
2019-11-19 07:00:00 -5.7 0 Calma 3 Sur 0 -- -- 88
2019-11-19 06:00:00 -4.8 0 Calma 3 Sur 0 -- -- 88
2019-11-19 05:00:00 -4.4 0 Calma 3 Sur 0 -- -- 85
2019-11-19 04:00:00 -3.6 0 Calma 3 Sur 0 -- -- 81
2019-11-19 03:00:00 -2.5 0 Calma 2 Norte 0 -- -- 76
2019-11-19 02:00:00 -1.2 0 Calma 6 Este 0 -- -- 66
2019-11-19 01:00:00 0.5 3 Nordeste 11 Norte 0 -- -- 56
2019-11-19 00:00:00 0.6 3 Nordeste 9 Noroeste 0 -- -- 60
2019-11-18 23:00:00 1.3 3 Nordeste 12 Nordeste 0 -- -- 57
2019-11-18 22:00:00 1.7 2 Nordeste 12 Norte 0 -- -- 55
2019-11-18 21:00:00 1.8 2 Norte 12 Este 0 -- -- 57
2019-11-18 20:00:00 2.2 3 Este 15 Norte 0 -- -- 58
2019-11-18 19:00:00 2.7 4 Nordeste 16 Norte 0 -- -- 55
2019-11-18 18:00:00 3.6 6 Norte 24 Noroeste 0 -- -- 52
2019-11-18 17:00:00 4.5 5 Norte 25 Noroeste 0 -- -- 50
2019-11-18 16:00:00 5.9 9 Norte 32 Norte 0 -- -- 47
2019-11-18 15:00:00 7 14 Norte 31 Norte 0 -- -- 47
2019-11-18 14:00:00 7.3 13 Norte 30 Noroeste 0 -- -- 49
2019-11-18 13:00:00 6.7 10 Noroeste 27 Norte 0 -- -- 53
2019-11-18 12:00:00 6.8 10 Noroeste 24 Noroeste 0 -- -- 54
2019-11-18 11:00:00 6 9 Noroeste 21 Noroeste 0 -- -- 61
2019-11-18 10:00:00 3.6 4 Nordeste 8 Nordeste 0 -- -- 88
2019-11-18 09:00:00 1.6 0 Calma 3 Noroeste 0 -- -- 98
2019-11-18 08:00:00 1 0 Calma 4 Noroeste 0.6 -- -- 98
2019-11-18 07:00:00 0.9 0 Calma 2 Sudeste 0.6 -- -- 98
2019-11-18 06:00:00 0.7 0 Calma 3 Sur 0 -- -- 97
2019-11-18 05:00:00 1 0 Calma 3 Norte 0 -- -- 97
2019-11-18 04:00:00 0.9 0 Calma 3 Sur 0 -- -- 97
2019-11-18 03:00:00 0.7 0 Calma 3 Sur 0 -- -- 97
2019-11-18 02:00:00 0.4 0 Calma 3 Sudoeste 0 -- -- 96
2019-11-18 01:00:00 0.2 0 Calma 4 Sur 0 -- -- 95
2019-11-18 00:00:00 0.9 0 Calma 4 Sur 0 -- -- 94
2019-11-17 23:00:00 1.1 2 Sur 3 Sur 0 -- -- 94
2019-11-17 22:00:00 1.1 0 Calma 3 Sur 0 -- -- 94
2019-11-17 21:00:00 1 0 Calma 4 Sur 0 -- -- 92
2019-11-17 20:00:00 1.8 0 Calma 5 Norte 0 -- -- 88
2019-11-17 19:00:00 3.5 0 Calma 8 Este 0 -- -- 84
2019-11-17 18:00:00 4.6 6 Sudeste 17 Sudeste 0 -- -- 78
2019-11-17 17:00:00 5.6 6 Sudeste 16 Sudeste 0 -- -- 73
2019-11-17 16:00:00 7 9 Sur 18 Sudeste 0 -- -- 66
2019-11-17 15:00:00 7.4 8 Sudeste 15 Sur 0 -- -- 66
2019-11-17 14:00:00 7.3 2 Sur 6 Sur 0 -- -- 69
2019-11-17 13:00:00 5.3 2 Noroeste 7 Sur 0 -- -- 80
2019-11-17 12:00:00 4.2 3 Sur 6 Sur 0.6 -- -- 86
2019-11-17 11:00:00 2.2 4 Sur 10 Sur 0.8 -- -- 91
2019-11-17 10:00:00 0.8 0 Calma 5 Sudeste 0.4 -- -- 97
2019-11-17 09:00:00 0 0 Calma 2 Noroeste 0 -- -- 99
2019-11-17 08:00:00 -0.4 0 Calma 2 Sudoeste 0 -- -- 98
2019-11-17 07:00:00 -0.4 0 Calma 2 Sudeste 0 -- -- 98
2019-11-17 06:00:00 -0.2 0 Calma 2 Sudeste 0 -- -- 98
2019-11-17 05:00:00 -0.2 0 Calma 0 Calma 0 -- -- 97
2019-11-17 04:00:00 -0.2 0 Calma 2 Sudeste 0 -- -- 97
2019-11-17 03:00:00 -0.4 0 Calma 5 Noroeste 0 -- -- 97
2019-11-17 02:00:00 -0.2 0 Calma 3 Sudeste 0 -- -- 95
2019-11-17 01:00:00 0 0 Calma 5 Sudoeste 0 -- -- 93
2019-11-17 00:00:00 -0.4 0 Calma 3 Sur 0 -- -- 94
2019-11-16 23:00:00 0 0 Calma 3 Oeste 0 -- -- 93
2019-11-16 22:00:00 0 0 Calma 4 Norte 0 -- -- 91
2019-11-16 21:00:00 0.8 0 Calma 4 Sur 0 -- -- 89
2019-11-16 20:00:00 1.7 0 Calma 8 Nordeste 0 -- -- 86
2019-11-16 19:00:00 2.4 3 Norte 10 Nordeste 0 -- -- 79
2019-11-16 18:00:00 3.2 5 Norte 13 Nordeste 0 -- -- 68
2019-11-16 17:00:00 3.8 0 Calma 3 Sur 0 -- -- 69
2019-11-16 16:00:00 4.4 0 Calma 3 Noroeste 0 -- -- 59
2019-11-16 15:00:00 4.6 2 Sudoeste 4 Noroeste 0 -- -- 58
2019-11-16 14:00:00 4.3 2 Sudoeste 10 Sur 0 -- -- 58
2019-11-16 13:00:00 1.8 3 Sudoeste 5 Sudoeste 0 -- -- 61
2019-11-16 12:00:00 -0.3 0 Calma 4 Sur 0 -- -- 75
2019-11-16 11:00:00 -2.4 2 Sur 4 Sur 0 -- -- 88
2019-11-16 10:00:00 -5.2 0 Calma 3 Sur 0 -- -- 97
2019-11-16 09:00:00 -7.1 0 Calma 2 Sur 0 -- -- 94
2019-11-16 08:00:00 -7.1 0 Calma 3 Sur 0 -- -- 94
2019-11-16 07:00:00 -6.5 0 Calma 2 Norte 0 -- -- 95
2019-11-16 06:00:00 -6.1 0 Calma 3 Este 0 -- -- 95
2019-11-16 05:00:00 -6 0 Calma 2 Sudoeste 0 -- -- 95
2019-11-16 04:00:00 -5.3 0 Calma 4 Sur 0 -- -- 95
2019-11-16 03:00:00 -4.8 0 Calma 4 Noroeste 0 -- -- 95
2019-11-16 02:00:00 -4.5 0 Calma 4 Sur 0 -- -- 95
2019-11-16 01:00:00 -3.6 2 Norte 5 Nordeste 0 -- -- 96
2019-11-16 00:00:00 -3.2 0 Calma 4 Norte 0 -- -- 96
2019-11-15 23:00:00 -2.6 0 Calma 3 Oeste 0 -- -- 96
2019-11-15 22:00:00 -1.9 0 Calma 5 Sur 0 -- -- 96
2019-11-15 21:00:00 -1.3 0 Calma 3 Sur 0 -- -- 95
2019-11-15 20:00:00 -0.2 0 Calma 6 Norte 0 -- -- 93
2019-11-15 19:00:00 0.9 0 Calma 3 Este 0 -- -- 92
2019-11-15 18:00:00 1.7 0 Calma 12 Nordeste 0.2 -- -- 87
2019-11-15 17:00:00 3 0 Calma 4 Nordeste 0 -- -- 73
2019-11-15 16:00:00 3.2 0 Calma 5 Sudeste 0 -- -- 71
2019-11-15 15:00:00 3.4 0 Calma 6 Sur 0 -- -- 68
2019-11-15 14:00:00 3.5 3 Sur 7 Sudoeste 0 -- -- 65
2019-11-15 13:00:00 2 4 Sur 8 Sudoeste 0 -- -- 70
2019-11-15 12:00:00 -0.3 3 Sur 5 Sur 0 -- -- 69
2019-11-15 11:00:00 -2 0 Calma 4 Oeste 0 -- -- 82
2019-11-15 10:00:00 -4.9 0 Calma -- -- 0 -- -- 96
2019-11-15 09:00:00 -6.2 0 Calma -- -- 0 -- -- 94
2019-11-15 08:00:00 -6.6 0 Calma -- -- 0 -- -- 94
2019-11-15 07:00:00 -6.5 0 Calma -- -- 0 -- -- 95
2019-11-15 06:00:00 -5.9 0 Calma -- -- 0 -- -- 95
2019-11-15 05:00:00 -5.6 0 Calma -- -- 0 -- -- 95
2019-11-15 04:00:00 -5.6 0 Calma -- -- 0 -- -- 96
2019-11-15 03:00:00 -5.1 0 Calma -- -- 0 -- -- 95
2019-11-15 02:00:00 -4.5 0 Calma -- -- 0 -- -- 96
2019-11-15 01:00:00 -4.3 0 Calma -- -- 0 -- -- 96
2019-11-15 00:00:00 -3.6 0 Calma -- -- 0 -- -- 96
2019-11-14 23:00:00 -2.8 0 Calma -- -- 0 -- -- 96
2019-11-14 22:00:00 -2.2 0 Calma -- -- 0 -- -- 96
2019-11-14 21:00:00 -1.6 0 Calma -- -- 0 -- -- 96
2019-11-14 20:00:00 -0.6 0 Calma -- -- 0 -- -- 97
2019-11-14 19:00:00 -0.1 0 Calma 3 Sudeste 0 -- -- 96
2019-11-14 18:00:00 1.1 0 Calma 6 Noroeste 0 -- -- 94
2019-11-14 17:00:00 2.4 0 Calma 3 Noroeste 0 -- -- 90
2019-11-14 16:00:00 3.2 0 Calma 4 Este 0 -- -- 86
2019-11-14 15:00:00 2.5 0 Calma 5 Sudeste 0 -- -- 90
2019-11-14 14:00:00 2.8 2 Noroeste 4 Noroeste 0 -- -- 91
2019-11-14 13:00:00 2 0 Calma 3 Sudeste 0.6 -- -- 94
2019-11-14 12:00:00 1.3 0 Calma 0 Calma 0.2 -- -- 96
2019-11-14 11:00:00 0.7 0 Calma 0 Calma 0.2 -- -- 97
2019-11-14 10:00:00 1 0 Calma 6 Este 0.2 -- -- 95
2019-11-14 09:00:00 0.9 0 Calma 3 Norte 0 -- -- 98
2019-11-14 08:00:00 0.1 0 Calma 0 Calma 0 -- -- 97
2019-11-14 07:00:00 -0.1 0 Calma 2 Sudoeste 0.2 -- -- 96
2019-11-14 06:00:00 -0.1 0 Calma 3 Sudoeste 0 -- -- 94
2019-11-14 05:00:00 -0.1 0 Calma 3 Norte 0 -- -- 92
2019-11-14 04:00:00 0.3 0 Calma 4 Sudeste 0 -- -- 85
2019-11-14 03:00:00 0 0 Calma 5 Este 0 -- -- 85
2019-11-14 02:00:00 -0.3 0 Calma 8 Sudeste 0 -- -- 83
2019-11-14 01:00:00 -0.9 0 Calma 4 Sur 0 -- -- 83
2019-11-14 00:00:00 -0.9 0 Calma 5 Oeste 0 -- -- 84
2019-11-13 23:00:00 -0.6 0 Calma 3 Sudeste 0 -- -- 82
2019-11-13 22:00:00 -0.3 0 Calma 4 Sur 0 -- -- 80
2019-11-13 21:00:00 1.1 0 Calma 5 Oeste 0 -- -- 74
2019-11-13 20:00:00 2.6 0 Calma 4 Norte 0 -- -- 67
2019-11-13 19:00:00 4.3 2 Norte 5 Nordeste 0 -- -- 62
2019-11-13 18:00:00 7.4 3 Nordeste 17 Noroeste 0 -- -- 45
2019-11-13 17:00:00 8.3 4 Norte 19 Oeste 0 -- -- 44
2019-11-13 16:00:00 10.1 8 Norte 27 Noroeste 0 -- -- 45
2019-11-13 15:00:00 10.9 10 Norte 30 Noroeste 0 -- -- 39
2019-11-13 14:00:00 10.9 13 Noroeste 32 Norte 0 -- -- 40
2019-11-13 13:00:00 10.5 15 Noroeste 35 Noroeste 0 -- -- 39
2019-11-13 12:00:00 9.7 10 Noroeste 27 Noroeste 0 -- -- 50
2019-11-13 11:00:00 7.8 7 Norte 20 Norte 0 -- -- 59
2019-11-13 10:00:00 2.1 0 Calma 4 Este 0 -- -- 91
2019-11-13 09:00:00 0.3 0 Calma 4 Sur 0 -- -- 94
2019-11-13 08:00:00 -0.1 0 Calma 4 Sur 0 -- -- 93
2019-11-13 07:00:00 -0.2 0 Calma 6 Noroeste 0 -- -- 94
2019-11-13 06:00:00 -0.4 0 Calma 4 Sur 0 -- -- 91
2019-11-13 05:00:00 0.3 0 Calma 4 Noroeste 0 -- -- 92
2019-11-13 04:00:00 0.3 0 Calma 4 Este 0 -- -- 90
2019-11-13 03:00:00 1.1 0 Calma 4 Noroeste 0 -- -- 87
2019-11-13 02:00:00 2.4 0 Calma 4 Sur 0 -- -- 81
2019-11-13 01:00:00 4.5 0 Calma 3 Sur 0 -- -- 74
2019-11-13 00:00:00 5.3 3 Sur 10 Este 0 -- -- 69
2019-11-12 23:00:00 5.5 2 Sudeste 6 Sudeste 0 -- -- 69
2019-11-12 22:00:00 5.8 3 Sudeste 6 Sudeste 0 -- -- 66
2019-11-12 21:00:00 6.4 2 Sur 13 Norte 0 -- -- 61
2019-11-12 20:00:00 7.9 4 Norte 21 Noroeste 0 -- -- 54
2019-11-12 19:00:00 8.5 5 Norte 23 Oeste 0 -- -- 51
2019-11-12 18:00:00 8.5 6 Norte 26 Norte 0 -- -- 52
2019-11-12 17:00:00 8.8 7 Norte 19 Noroeste 0 -- -- 49
2019-11-12 16:00:00 9.4 6 Noroeste 25 Noroeste 0 -- -- 50
2019-11-12 15:00:00 9.4 10 Noroeste 22 Noroeste 0 -- -- 51
2019-11-12 14:00:00 9.8 8 Noroeste 23 Noroeste 0 -- -- 48
2019-11-12 13:00:00 9.8 11 Noroeste 26 Noroeste 0 -- -- 46
2019-11-12 12:00:00 9.1 8 Norte 24 Nordeste 0 -- -- 43
2019-11-12 11:00:00 8.6 8 Norte 32 Noroeste 0 -- -- 43
2019-11-12 10:00:00 7.4 7 Norte 23 Nordeste 0 -- -- 46
2019-11-12 09:00:00 6.1 7 Norte 28 Noroeste 0 -- -- 53
2019-11-12 08:00:00 5.8 11 Noroeste 30 Noroeste 0 -- -- 55
2019-11-12 07:00:00 5.6 6 Norte 23 Noroeste 0 -- -- 52
2019-11-12 06:00:00 5.6 7 Norte 26 Norte 0 -- -- 55
2019-11-12 05:00:00 6 15 Norte 37 Norte 0 -- -- 45
2019-11-12 04:00:00 6.3 13 Norte 39 Norte 0 -- -- 39
2019-11-12 03:00:00 6.2 9 Norte 30 Noroeste 0 -- -- 49
2019-11-12 02:00:00 6.2 12 Norte 40 Norte 0 -- -- 50
2019-11-12 01:00:00 6.4 10 Norte 38 Nordeste 0 -- -- 47
2019-11-12 00:00:00 6.5 14 Norte 40 Norte 0 -- -- 57
2019-11-11 23:00:00 6.7 11 Norte 41 Norte 0 -- -- 51
2019-11-11 22:00:00 7.1 14 Norte 37 Nordeste 0 -- -- 46
2019-11-11 21:00:00 7.1 13 Norte 44 Norte 0 -- -- 52
2019-11-11 20:00:00 7.9 17 Norte 46 Norte 0 -- -- 49
2019-11-11 19:00:00 8.8 13 Norte 44 Noroeste 0 -- -- 51
2019-11-11 18:00:00 7 3 Sur 16 Este 0 -- -- 82
2019-11-11 17:00:00 8 4 Nordeste 27 Noroeste 0 -- -- 79
2019-11-11 16:00:00 11.8 11 Noroeste 25 Noroeste 0 -- -- 47
2019-11-11 15:00:00 12.1 9 Norte 26 Noroeste 0 -- -- 40
2019-11-11 14:00:00 11.8 13 Norte 31 Norte 0 -- -- 32
2019-11-11 13:00:00 10.7 7 Norte 19 Norte 0 -- -- 30
2019-11-11 12:00:00 8.3 6 Norte 14 Noroeste 0 -- -- 32
2019-11-11 11:00:00 5 3 Sur 6 Sudeste 0 -- -- 53
2019-11-11 10:00:00 3 2 Sudoeste 7 Norte 0 -- -- 57
2019-11-11 09:00:00 1.7 0 Calma 5 Oeste 0 -- -- 62
2019-11-11 08:00:00 1.4 0 Calma 12 Nordeste 0 -- -- 62
2019-11-11 07:00:00 2.3 0 Calma 13 Este 0 -- -- 55
2019-11-11 06:00:00 3 6 Nordeste 16 Nordeste 0 -- -- 45
2019-11-11 05:00:00 2.6 6 Nordeste 18 Nordeste 0 -- -- 48
2019-11-11 04:00:00 2.4 6 Nordeste 13 Norte 0.2 -- -- 51
2019-11-11 03:00:00 2.8 2 Nordeste 19 Nordeste 0 -- -- 52
2019-11-11 02:00:00 2.6 3 Nordeste 15 Este 0 -- -- 54
2019-11-11 01:00:00 2.9 10 Nordeste 19 Nordeste 0 -- -- 54
2019-11-11 00:00:00 3.5 4 Norte 26 Noroeste 0 -- -- 55